Time;durP1;ratioP1;P1;durP2;ratioP2;P2;SDS_P1;SDS_P2;PMS_P1;PMS_P2;Temp;Humidity;BMP_temperature;BMP_pressure;BME280_temperature;BME280_humidity;BME280_pressure;Samples;Min_cycle;Max_cycle;Signal;HPM_P1;HPM_P2
2022/08/03 00:01:39;;;;;;;3.60;1.58;;;18.80;99.90;;;;;;5043203;28;20044;-79
2022/08/03 00:04:06;;;;;;;2.05;1.10;;;18.80;99.90;;;;;;5057142;28;20051;-79
2022/08/03 00:06:32;;;;;;;5.53;1.40;;;18.80;99.90;;;;;;5057263;28;20124;-81
2022/08/03 00:08:57;;;;;;;2.38;1.30;;;18.80;99.90;;;;;;5039361;28;20123;-82
2022/08/03 00:11:23;;;;;;;3.83;1.10;;;18.80;99.90;;;;;;5052120;28;20115;-81
2022/08/03 00:13:49;;;;;;;1.90;1.10;;;18.80;99.90;;;;;;5057691;28;20048;-82
2022/08/03 00:16:15;;;;;;;4.18;1.52;;;18.80;99.90;;;;;;5057251;28;20469;-82
2022/08/03 00:18:41;;;;;;;2.38;1.45;;;18.80;99.90;;;;;;5056773;28;20044;-82
2022/08/03 00:21:07;;;;;;;3.85;1.25;;;18.80;99.90;;;;;;5040221;28;20040;-82
2022/08/03 00:23:33;;;;;;;2.47;1.50;;;18.80;99.90;;;;;;5041039;28;20124;-80
2022/08/03 00:25:59;;;;;;;2.83;1.20;;;18.80;99.90;;;;;;5055542;28;20045;-79
2022/08/03 00:28:25;;;;;;;1.98;1.08;;;18.90;99.90;;;;;;5056862;28;20094;-79
2022/08/03 00:30:51;;;;;;;3.58;1.80;;;18.80;99.90;;;;;;5056176;28;20040;-79
2022/08/03 00:33:17;;;;;;;2.90;1.33;;;18.80;99.90;;;;;;5056345;28;20083;-79
2022/08/03 00:35:42;;;;;;;4.43;1.10;;;18.80;99.90;;;;;;5040049;28;20048;-79
2022/08/03 00:38:08;;;;;;;1.98;0.75;;;18.90;99.90;;;;;;5056111;28;20042;-79
2022/08/03 00:40:34;;;;;;;1.83;1.15;;;18.90;99.90;;;;;;5052930;28;20040;-81
2022/08/03 00:43:02;;;;;;;1.85;1.15;;;18.90;99.90;;;;;;5076383;28;20169;-81
2022/08/03 00:45:39;;;;;;;1.88;1.10;;;18.90;99.90;;;;;;5076170;28;20059;-81
2022/08/03 00:48:07;;;;;;;3.95;1.30;;;18.90;99.90;;;;;;5057247;28;20040;-81
2022/08/03 00:50:39;;;;;;;3.10;1.33;;;18.90;99.90;;;;;;5039968;28;20111;-81
2022/08/03 00:53:06;;;;;;;4.05;1.40;;;18.90;99.90;;;;;;5056047;28;20036;-82
2022/08/03 00:55:34;;;;;;;3.05;1.30;;;18.90;99.90;;;;;;5039581;28;20044;-82
2022/08/03 00:58:05;;;;;;;2.00;1.00;;;18.90;99.90;;;;;;5056111;28;20039;-82
2022/08/03 01:00:31;;;;;;;2.28;1.20;;;18.80;99.90;;;;;;5056111;28;20053;-81
2022/08/03 01:02:57;;;;;;;2.15;1.30;;;18.80;99.90;;;;;;5039800;28;20048;-81
2022/08/03 01:05:23;;;;;;;4.43;1.40;;;18.80;99.90;;;;;;5039579;28;20036;-82
2022/08/03 01:08:04;;;;;;;3.45;1.58;;;18.80;99.90;;;;;;5055697;28;20036;-81
2022/08/03 01:10:39;;;;;;;2.53;1.38;;;18.70;99.90;;;;;;5047045;28;20125;-82
2022/08/03 01:13:24;;;;;;;3.00;1.10;;;18.70;99.90;;;;;;5038232;28;20476;-80
2022/08/03 01:15:58;;;;;;;3.97;1.17;;;18.70;99.90;;;;;;5055622;28;20052;-79
2022/08/03 01:18:43;;;;;;;3.80;1.10;;;18.60;99.90;;;;;;5055831;28;20040;-79
2022/08/03 01:21:23;;;;;;;4.93;1.20;;;18.60;99.90;;;;;;5031362;28;20509;-79
2022/08/03 01:24:31;;;;;;;1.65;0.63;;;18.60;99.90;;;;;;5046809;28;20048;-79
2022/08/03 01:27:16;;;;;;;2.28;1.17;;;18.60;99.90;;;;;;5022267;28;20044;-79
2022/08/03 01:30:05;;;;;;;1.98;1.17;;;18.60;99.90;;;;;;5033183;28;20093;-79
2022/08/03 01:32:31;;;;;;;2.05;1.10;;;18.50;99.90;;;;;;5039108;28;20078;-79
2022/08/03 01:35:07;;;;;;;2.17;1.15;;;18.50;99.90;;;;;;5038462;28;20036;-79
2022/08/03 01:37:42;;;;;;;2.30;1.00;;;18.50;99.90;;;;;;5037881;28;20040;-79
2022/08/03 01:40:09;;;;;;;4.65;1.40;;;18.50;99.90;;;;;;5038648;28;21612;-79
2022/08/03 01:42:37;;;;;;;3.22;1.20;;;18.50;99.90;;;;;;5048986;28;20076;-79
2022/08/03 01:45:04;;;;;;;5.10;1.17;;;18.50;99.90;;;;;;5034973;28;20064;-79
2022/08/03 01:47:31;;;;;;;3.55;1.30;;;18.50;99.90;;;;;;5038645;28;20036;-82
2022/08/03 01:49:59;;;;;;;4.28;1.55;;;18.50;99.90;;;;;;5071308;28;20402;-81
2022/08/03 01:52:25;;;;;;;2.55;1.27;;;18.50;99.90;;;;;;5064031;28;20061;-81
2022/08/03 01:54:52;;;;;;;2.08;1.10;;;18.50;99.90;;;;;;5076092;28;20036;-82
2022/08/03 01:57:20;;;;;;;1.67;1.10;;;18.50;99.90;;;;;;5042329;28;20043;-81
2022/08/03 01:59:48;;;;;;;3.08;1.20;;;18.40;99.90;;;;;;5038580;28;20466;-81
2022/08/03 02:02:16;;;;;;;3.42;1.08;;;18.40;99.90;;;;;;5056807;28;20097;-81
2022/08/03 02:04:44;;;;;;;2.58;0.90;;;18.40;99.90;;;;;;5039517;28;20052;-82
2022/08/03 02:07:11;;;;;;;4.43;1.20;;;18.40;99.90;;;;;;5036598;28;20112;-81
2022/08/03 02:09:38;;;;;;;2.83;1.00;;;18.40;99.90;;;;;;5059366;28;20385;-82
2022/08/03 02:12:09;;;;;;;4.65;1.33;;;18.40;99.90;;;;;;5044507;28;20047;-82
2022/08/03 02:14:36;;;;;;;1.67;0.70;;;18.40;99.90;;;;;;5038280;28;20123;-82
2022/08/03 02:17:03;;;;;;;2.17;0.88;;;18.40;99.90;;;;;;5038633;28;20040;-81
2022/08/03 02:19:31;;;;;;;3.42;0.80;;;18.30;99.90;;;;;;5038983;28;20127;-81
2022/08/03 02:21:57;;;;;;;4.80;1.17;;;18.30;99.90;;;;;;5056278;28;20049;-81
2022/08/03 02:24:23;;;;;;;5.43;1.50;;;18.30;99.90;;;;;;5054975;28;20032;-82
2022/08/03 02:26:51;;;;;;;3.60;1.15;;;18.30;99.90;;;;;;5055120;28;20123;-81
2022/08/03 02:29:23;;;;;;;3.83;1.48;;;18.30;99.90;;;;;;5073097;28;20111;-81
2022/08/03 02:31:50;;;;;;;2.60;1.10;;;18.30;99.90;;;;;;5067502;28;20123;-81
2022/08/03 02:34:19;;;;;;;4.95;1.10;;;18.30;99.90;;;;;;5055001;28;20076;-82
2022/08/03 02:36:49;;;;;;;6.47;1.40;;;18.40;99.90;;;;;;5055411;28;20036;-82
2022/08/03 02:39:19;;;;;;;2.55;0.90;;;18.30;99.90;;;;;;5055071;28;20045;-82
2022/08/03 02:41:50;;;;;;;2.90;1.10;;;18.30;99.90;;;;;;5037887;28;20120;-82
2022/08/03 02:44:19;;;;;;;4.05;1.05;;;18.30;99.90;;;;;;5037775;28;20486;-81
2022/08/03 02:46:48;;;;;;;3.92;1.33;;;18.20;99.90;;;;;;5038862;28;20052;-82
2022/08/03 02:49:17;;;;;;;2.55;1.20;;;18.20;99.90;;;;;;5057753;28;20052;-82
2022/08/03 02:51:46;;;;;;;5.15;1.38;;;18.20;99.90;;;;;;5058816;28;20045;-81
2022/08/03 02:54:16;;;;;;;3.10;1.75;;;18.20;99.90;;;;;;5041802;28;20028;-79
2022/08/03 02:56:44;;;;;;;2.97;1.08;;;18.20;99.90;;;;;;5065102;28;20045;-79
2022/08/03 02:59:11;;;;;;;6.88;1.05;;;18.10;99.90;;;;;;5058142;28;20563;-79
2022/08/03 03:01:38;;;;;;;2.40;1.48;;;18.10;99.90;;;;;;5049547;28;20048;-79
2022/08/03 03:04:04;;;;;;;3.97;1.52;;;18.10;99.90;;;;;;5023583;28;20044;-79
2022/08/03 03:06:31;;;;;;;2.88;1.05;;;18.10;99.90;;;;;;5033134;28;20047;-79
2022/08/03 03:08:58;;;;;;;2.97;1.67;;;18.10;99.90;;;;;;5058733;28;20037;-79
2022/08/03 03:11:25;;;;;;;2.67;1.00;;;18.10;99.90;;;;;;5041647;28;20028;-79
2022/08/03 03:13:51;;;;;;;2.38;1.33;;;18.10;99.90;;;;;;5053875;28;20068;-79
2022/08/03 03:16:18;;;;;;;4.35;1.58;;;18.10;99.90;;;;;;5057398;28;20457;-79
2022/08/03 03:18:46;;;;;;;5.45;1.15;;;18.10;99.90;;;;;;5040897;28;20075;-79
2022/08/03 03:21:15;;;;;;;3.55;1.50;;;18.10;99.90;;;;;;5057495;28;20044;-79
2022/08/03 03:23:41;;;;;;;4.10;1.35;;;18.10;99.90;;;;;;5057702;28;20074;-79
2022/08/03 03:26:07;;;;;;;3.13;1.17;;;18.10;99.90;;;;;;5041469;28;20041;-79
2022/08/03 03:28:37;;;;;;;3.83;1.15;;;18.10;99.90;;;;;;5057832;28;20032;-79
2022/08/03 03:31:05;;;;;;;3.67;0.85;;;18.00;99.90;;;;;;5041392;28;20115;-79
2022/08/03 03:33:32;;;;;;;2.50;1.15;;;18.00;99.90;;;;;;5041738;28;20041;-79
2022/08/03 03:35:58;;;;;;;5.93;1.20;;;18.00;99.90;;;;;;5040594;28;20048;-79
2022/08/03 03:38:24;;;;;;;6.18;2.03;;;18.00;99.90;;;;;;5057448;28;20370;-79
2022/08/03 03:40:51;;;;;;;2.15;0.95;;;18.00;99.90;;;;;;5057016;28;20055;-79
2022/08/03 03:43:19;;;;;;;2.35;1.10;;;18.00;99.90;;;;;;5057575;28;20060;-79
2022/08/03 03:45:46;;;;;;;2.63;1.67;;;18.00;99.90;;;;;;5040877;28;20498;-79
2022/08/03 03:48:12;;;;;;;4.05;1.30;;;17.90;99.90;;;;;;5057592;28;20048;-79
2022/08/03 03:50:39;;;;;;;2.08;1.40;;;17.90;99.90;;;;;;5057237;28;20078;-79
2022/08/03 03:53:09;;;;;;;4.97;1.30;;;17.60;99.90;;;;;;5057618;28;20405;-80
2022/08/03 03:55:35;;;;;;;2.72;1.33;;;17.90;99.90;;;;;;5048454;28;20049;-79
2022/08/03 03:58:02;;;;;;;2.05;1.02;;;17.90;99.90;;;;;;5057024;28;20033;-79
2022/08/03 04:00:29;;;;;;;3.67;1.27;;;17.90;99.90;;;;;;5038883;28;20477;-82
2022/08/03 04:02:55;;;;;;;3.75;1.42;;;17.90;99.90;;;;;;5024293;28;20045;-82
2022/08/03 04:11:09;;;;;;;2.53;2.00;;;17.90;99.90;;;;;;5053159;28;20044;-82
2022/08/03 04:13:48;;;;;;;3.97;1.10;;;17.90;99.90;;;;;;5057274;28;20372;-81
2022/08/03 04:16:16;;;;;;;3.45;1.88;;;17.90;99.90;;;;;;5040487;28;20036;-82
2022/08/03 04:18:47;;;;;;;4.32;1.20;;;18.00;99.90;;;;;;5051050;28;20182;-79
2022/08/03 04:21:16;;;;;;;3.38;1.45;;;18.00;99.90;;;;;;5057925;28;20074;-79
2022/08/03 04:23:48;;;;;;;2.97;1.35;;;18.00;99.90;;;;;;5027360;28;20044;-79
2022/08/03 04:26:20;;;;;;;4.13;1.80;;;18.00;99.90;;;;;;5054230;28;20143;-79
2022/08/03 04:28:48;;;;;;;5.30;1.90;;;18.00;99.90;;;;;;5048234;28;20059;-79
2022/08/03 04:31:15;;;;;;;5.97;1.73;;;18.00;99.90;;;;;;5056263;28;20040;-79
2022/08/03 04:33:43;;;;;;;2.45;1.70;;;18.00;99.90;;;;;;5070204;28;20042;-79
2022/08/03 04:36:13;;;;;;;2.95;1.45;;;18.00;99.90;;;;;;5059515;28;20044;-79
2022/08/03 04:38:49;;;;;;;4.35;1.33;;;18.10;99.90;;;;;;5056164;28;20122;-79
2022/08/03 04:41:15;;;;;;;3.45;1.27;;;18.10;99.90;;;;;;5056786;28;20509;-79
2022/08/03 04:43:42;;;;;;;3.13;1.60;;;18.10;99.90;;;;;;5039439;28;20090;-79
2022/08/03 04:46:09;;;;;;;2.60;1.20;;;18.20;99.90;;;;;;5056649;28;20048;-79
2022/08/03 04:48:35;;;;;;;3.28;1.55;;;18.20;99.90;;;;;;5039876;28;20580;-79
2022/08/03 04:51:03;;;;;;;4.30;1.50;;;18.20;99.90;;;;;;5039839;28;20520;-82
2022/08/03 04:53:29;;;;;;;8.05;1.50;;;18.20;99.90;;;;;;5056363;28;20535;-82
2022/08/03 04:56:02;;;;;;;7.93;1.98;;;18.20;99.90;;;;;;5031338;28;20037;-82
2022/08/03 04:58:27;;;;;;;2.78;1.15;;;18.30;99.90;;;;;;5053282;28;20409;-82
2022/08/03 05:00:53;;;;;;;2.42;1.10;;;18.30;99.90;;;;;;5043621;28;20112;-82
2022/08/03 05:03:19;;;;;;;5.28;1.45;;;18.40;99.90;;;;;;5053039;28;20048;-81
2022/08/03 05:05:44;;;;;;;5.78;1.67;;;18.30;99.90;;;;;;5055967;28;20485;-82
2022/08/03 05:08:10;;;;;;;2.78;1.15;;;18.50;99.90;;;;;;5039042;28;20116;-82
2022/08/03 05:10:36;;;;;;;3.40;1.75;;;18.60;99.90;;;;;;5059385;28;20423;-82
2022/08/03 05:13:03;;;;;;;6.32;1.60;;;18.70;99.90;;;;;;5039604;28;20115;-82
2022/08/03 05:15:28;;;;;;;3.25;1.42;;;19.70;99.90;;;;;;5056136;28;20119;-82
2022/08/03 05:17:54;;;;;;;4.22;1.42;;;19.70;99.90;;;;;;5052554;28;20170;-82
2022/08/03 05:20:20;;;;;;;5.53;1.92;;;20.20;99.90;;;;;;5055748;28;20043;-82
2022/08/03 05:22:45;;;;;;;6.03;1.92;;;20.20;99.90;;;;;;5041133;28;20036;-82
2022/08/03 05:25:11;;;;;;;3.17;1.42;;;21.30;99.90;;;;;;5055321;28;20067;-79
2022/08/03 05:27:37;;;;;;;4.10;1.83;;;22.20;99.90;;;;;;5038877;28;20040;-79
2022/08/03 05:30:03;;;;;;;6.10;1.80;;;23.00;99.90;;;;;;5072871;28;20041;-79
2022/08/03 05:32:29;;;;;;;10.18;1.35;;;23.00;99.90;;;;;;5054058;28;20032;-79
2022/08/03 05:34:55;;;;;;;5.65;1.30;;;23.60;99.90;;;;;;5050748;28;20047;-79
2022/08/03 05:37:20;;;;;;;3.80;1.60;;;23.80;99.90;;;;;;5055619;28;20105;-80
2022/08/03 05:39:46;;;;;;;4.45;1.27;;;24.10;99.90;;;;;;5061925;28;20410;-81
2022/08/03 05:42:14;;;;;;;4.28;1.40;;;24.90;99.90;;;;;;5055861;28;20051;-82
2022/08/03 05:44:40;;;;;;;4.97;1.20;;;25.40;99.90;;;;;;5061224;28;20060;-82
2022/08/03 05:47:06;;;;;;;4.13;1.25;;;25.80;99.90;;;;;;5038917;28;20041;-82
2022/08/03 05:49:32;;;;;;;4.78;1.23;;;26.40;99.90;;;;;;5039392;28;20040;-82
2022/08/03 05:51:58;;;;;;;2.80;1.15;;;26.80;99.90;;;;;;5055200;28;20040;-82
2022/08/03 05:54:24;;;;;;;5.28;1.67;;;27.20;99.90;;;;;;5055576;28;20032;-82
2022/08/03 05:56:49;;;;;;;4.22;1.55;;;27.40;99.90;;;;;;5055752;28;20045;-80
2022/08/03 05:59:15;;;;;;;3.63;1.70;;;27.30;99.90;;;;;;5055144;28;20051;-80
2022/08/03 06:01:41;;;;;;;6.35;1.00;;;27.40;99.90;;;;;;5053544;28;20497;-79
2022/08/03 06:04:06;;;;;;;2.97;1.23;;;27.30;99.90;;;;;;5054319;28;20678;-79
2022/08/03 06:06:32;;;;;;;3.05;1.08;;;27.20;99.90;;;;;;5027704;28;20469;-80
2022/08/03 06:08:58;;;;;;;7.22;1.20;;;26.80;99.90;;;;;;5020450;28;20048;-79
2022/08/03 06:11:23;;;;;;;2.78;1.27;;;27.20;99.90;;;;;;5038495;28;20029;-80
2022/08/03 06:13:49;;;;;;;3.95;1.60;;;27.20;99.90;;;;;;5054492;28;20414;-82
2022/08/03 06:16:15;;;;;;;2.90;1.35;;;27.50;99.90;;;;;;5055270;28;20046;-82
2022/08/03 06:18:41;;;;;;;7.18;1.58;;;27.90;99.90;;;;;;5055907;28;20032;-83
2022/08/03 06:21:06;;;;;;;3.00;1.45;;;28.30;99.90;;;;;;5038866;28;20482;-82
2022/08/03 06:23:32;;;;;;;4.78;2.03;;;28.70;99.90;;;;;;5057458;28;20051;-83
2022/08/03 06:25:58;;;;;;;4.18;1.52;;;28.90;99.90;;;;;;5047812;28;20478;-83
2022/08/03 06:28:23;;;;;;;5.53;1.33;;;29.20;99.90;;;;;;5063759;28;20117;-83
2022/08/03 06:30:49;;;;;;;3.38;1.40;;;29.40;99.90;;;;;;5059514;28;20040;-83
2022/08/03 06:33:15;;;;;;;5.55;1.55;;;29.60;99.90;;;;;;5042344;28;20124;-83
2022/08/03 06:35:41;;;;;;;6.93;1.55;;;29.30;99.90;;;;;;5059068;28;20040;-83
2022/08/03 06:38:07;;;;;;;4.70;2.10;;;29.10;99.90;;;;;;5058286;28;20048;-83
2022/08/03 06:40:38;;;;;;;7.22;2.05;;;28.90;99.90;;;;;;5042549;28;20037;-83
2022/08/03 06:43:05;;;;;;;5.38;1.40;;;28.60;99.90;;;;;;5042156;28;20044;-83
2022/08/03 06:45:32;;;;;;;3.20;1.60;;;29.20;99.90;;;;;;5038943;28;20052;-83
2022/08/03 06:48:11;;;;;;;2.83;1.65;;;29.40;99.90;;;;;;5041438;28;20058;-80
2022/08/03 06:50:40;;;;;;;5.60;2.25;;;30.20;99.90;;;;;;5050335;28;20040;-80
2022/08/03 06:53:06;;;;;;;7.43;2.42;;;30.50;99.50;;;;;;5056831;28;20033;-80
2022/08/03 06:55:32;;;;;;;12.80;2.25;;;30.70;99.10;;;;;;5055036;28;20041;-80
2022/08/03 06:57:58;;;;;;;5.60;1.88;;;30.80;98.60;;;;;;5053041;28;20068;-80
2022/08/03 07:00:25;;;;;;;8.27;2.45;;;31.20;97.80;;;;;;5037280;28;20080;-80
2022/08/03 07:02:51;;;;;;;5.05;1.60;;;31.30;97.90;;;;;;5032879;28;20041;-80
2022/08/03 07:05:16;;;;;;;4.45;1.70;;;30.70;98.80;;;;;;5038344;28;20041;-83
2022/08/03 07:07:43;;;;;;;3.55;1.85;;;30.40;98.50;;;;;;5020844;28;20482;-83
2022/08/03 07:10:10;;;;;;;4.60;2.10;;;30.80;98.40;;;;;;5043450;28;20057;-83
2022/08/03 07:12:36;;;;;;;4.85;2.10;;;30.50;98.60;;;;;;5005490;28;20531;-83
2022/08/03 07:15:04;;;;;;;5.63;1.67;;;30.10;98.70;;;;;;5039877;22;20045;-81
2022/08/03 07:17:31;;;;;;;4.30;2.33;;;30.00;98.80;;;;;;5018256;28;20057;-81
2022/08/03 07:19:57;;;;;;;5.25;1.65;;;29.40;99.10;;;;;;5050218;28;20076;-81
2022/08/03 07:22:23;;;;;;;5.07;1.60;;;28.70;99.80;;;;;;5018008;28;20041;-81
2022/08/03 07:24:49;;;;;;;4.13;2.17;;;28.00;99.90;;;;;;5030942;28;20038;-80
2022/08/03 07:27:15;;;;;;;7.47;2.40;;;27.50;99.90;;;;;;4998518;28;20037;-81
2022/08/03 07:29:41;;;;;;;8.25;2.22;;;27.00;99.90;;;;;;4998897;28;20370;-81
2022/08/03 07:32:07;;;;;;;4.90;2.08;;;26.70;99.90;;;;;;4998744;28;20049;-80
2022/08/03 07:34:32;;;;;;;5.05;2.15;;;26.20;99.90;;;;;;5004195;28;20038;-80
2022/08/03 07:36:58;;;;;;;5.45;2.25;;;25.80;99.90;;;;;;5016654;28;20479;-82
2022/08/03 07:39:24;;;;;;;8.15;2.42;;;25.80;99.90;;;;;;5031744;28;20107;-83
2022/08/03 07:41:50;;;;;;;4.40;2.00;;;25.80;99.90;;;;;;5021680;28;20403;-82
2022/08/03 07:44:19;;;;;;;5.47;2.65;;;25.60;99.90;;;;;;5021019;28;20051;-82
2022/08/03 07:46:45;;;;;;;4.45;1.95;;;25.30;99.90;;;;;;5022824;28;20037;-82
2022/08/03 07:49:11;;;;;;;4.75;2.30;;;25.20;99.90;;;;;;5004036;28;20480;-82
2022/08/03 07:51:37;;;;;;;5.53;2.15;;;25.80;99.90;;;;;;5018087;28;20052;-84
2022/08/03 07:54:03;;;;;;;4.15;2.17;;;27.30;99.90;;;;;;5017697;28;20040;-83
2022/08/03 07:56:30;;;;;;;9.32;2.50;;;28.70;99.90;;;;;;5017354;28;20041;-83
2022/08/03 07:58:55;;;;;;;6.68;1.90;;;29.80;99.90;;;;;;5001483;28;20384;-83
2022/08/03 08:01:22;;;;;;;7.32;1.92;;;30.70;99.60;;;;;;5001561;28;20128;-83
2022/08/03 08:03:49;;;;;;;4.95;2.53;;;31.20;98.60;;;;;;4995343;28;20049;-83
2022/08/03 08:06:16;;;;;;;11.27;3.25;;;31.70;98.80;;;;;;5018123;28;20048;-84
2022/08/03 08:08:42;;;;;;;9.02;2.60;;;32.50;96.90;;;;;;5000935;28;20052;-83
2022/08/03 08:11:08;;;;;;;3.45;1.70;;;32.60;96.90;;;;;;5031860;28;20069;-84
2022/08/03 08:13:36;;;;;;;5.28;2.20;;;33.30;96.20;;;;;;5021059;28;20083;-84
2022/08/03 08:16:02;;;;;;;5.53;2.00;;;33.00;95.30;;;;;;5036803;28;20502;-84
2022/08/03 08:18:31;;;;;;;5.88;2.20;;;32.10;95.30;;;;;;5026323;28;20053;-84
2022/08/03 08:20:57;;;;;;;7.47;2.78;;;31.20;96.60;;;;;;5000311;28;20041;-84
2022/08/03 08:23:23;;;;;;;6.75;2.35;;;30.50;97.10;;;;;;5017702;28;20072;-83
2022/08/03 08:25:53;;;;;;;6.18;2.90;;;29.80;98.40;;;;;;5025315;28;20130;-83
2022/08/03 08:28:20;;;;;;;5.03;2.50;;;29.60;98.90;;;;;;5000387;28;20041;-83
2022/08/03 08:30:46;;;;;;;5.28;2.50;;;29.30;98.60;;;;;;5019668;28;20493;-83
2022/08/03 08:33:12;;;;;;;5.85;2.45;;;29.80;99.80;;;;;;5017217;28;20102;-83
2022/08/03 08:35:38;;;;;;;4.13;2.50;;;30.40;98.80;;;;;;5028600;28;20044;-83
2022/08/03 08:38:03;;;;;;;5.88;2.30;;;31.20;97.30;;;;;;5017411;28;20132;-83
2022/08/03 08:40:29;;;;;;;8.07;2.50;;;32.10;96.10;;;;;;5029586;28;20510;-84
2022/08/03 08:42:55;;;;;;;6.20;2.15;;;32.50;96.00;;;;;;5037192;28;20131;-83
2022/08/03 08:45:21;;;;;;;8.27;2.60;;;32.60;96.00;;;;;;5036244;28;20083;-83
2022/08/03 08:47:49;;;;;;;7.18;2.42;;;33.70;96.20;;;;;;5017236;28;20037;-84
2022/08/03 08:50:20;;;;;;;4.18;1.90;;;34.50;94.00;;;;;;5021839;28;20042;-83
2022/08/03 08:52:48;;;;;;;6.45;2.28;;;34.70;93.10;;;;;;5004177;28;20483;-84
2022/08/03 08:55:20;;;;;;;4.90;2.63;;;34.20;93.00;;;;;;5016823;28;20042;-84
2022/08/03 08:57:58;;;;;;;7.03;2.22;;;33.80;92.90;;;;;;5016774;28;20049;-83
2022/08/03 09:00:23;;;;;;;6.40;2.10;;;34.00;93.40;;;;;;5010932;28;20104;-81
2022/08/03 09:02:49;;;;;;;7.72;2.65;;;34.90;93.10;;;;;;5015006;28;20049;-80
2022/08/03 09:05:17;;;;;;;7.75;2.83;;;35.20;92.40;;;;;;4983911;28;20047;-81
2022/08/03 09:07:45;;;;;;;3.97;2.50;;;34.90;91.80;;;;;;5032342;28;20045;-81
2022/08/03 09:10:12;;;;;;;7.40;2.60;;;34.20;92.50;;;;;;5027229;28;20071;-81
2022/08/03 09:12:44;;;;;;;6.85;2.40;;;34.10;92.60;;;;;;5015691;28;20045;-81
2022/08/03 09:15:26;;;;;;;5.20;2.85;;;34.60;92.80;;;;;;5031264;28;20049;-81
2022/08/03 09:17:57;;;;;;;17.13;2.75;;;35.30;93.20;;;;;;5027990;28;20057;-83
2022/08/03 09:20:24;;;;;;;6.65;2.45;;;35.10;90.70;;;;;;5052688;28;20056;-84
2022/08/03 09:22:59;;;;;;;5.63;2.70;;;35.40;91.80;;;;;;5034225;28;20483;-84
2022/08/03 09:25:30;;;;;;;7.82;2.50;;;35.70;91.30;;;;;;5036206;28;20091;-84
2022/08/03 09:28:07;;;;;;;7.47;2.42;;;35.90;90.60;;;;;;5030925;28;20086;-84
2022/08/03 09:30:33;;;;;;;7.45;3.05;;;35.80;90.70;;;;;;5036036;28;20045;-85
2022/08/03 09:33:08;;;;;;;6.72;2.60;;;35.30;90.30;;;;;;5037722;28;20096;-85
2022/08/03 09:35:41;;;;;;;4.18;2.40;;;35.30;90.80;;;;;;5036240;28;20098;-81
2022/08/03 09:38:18;;;;;;;5.80;2.90;;;35.30;90.60;;;;;;5035829;28;20093;-81
2022/08/03 09:40:45;;;;;;;5.65;2.63;;;35.40;90.30;;;;;;5028447;28;20071;-81
2022/08/03 09:43:11;;;;;;;7.07;3.42;;;35.60;90.10;;;;;;5016128;28;20479;-80
2022/08/03 09:45:39;;;;;;;7.05;2.50;;;35.70;90.60;;;;;;5035223;28;20103;-81
2022/08/03 09:48:20;;;;;;;7.28;2.72;;;35.90;88.70;;;;;;5019486;28;20029;-81
2022/08/03 09:50:50;;;;;;;7.43;2.72;;;35.70;88.70;;;;;;5035854;28;20459;-81
2022/08/03 09:53:17;;;;;;;6.13;2.75;;;35.80;88.70;;;;;;5018910;28;20486;-81
2022/08/03 09:56:09;;;;;;;7.97;2.97;;;35.80;88.80;;;;;;5035340;28;20047;-81
2022/08/03 09:58:45;;;;;;;6.18;2.60;;;35.30;90.50;;;;;;5014418;28;20081;-81
2022/08/03 10:01:11;;;;;;;7.53;3.05;;;35.30;89.20;;;;;;5028258;28;20033;-81
2022/08/03 10:03:38;;;;;;;9.98;2.50;;;35.50;89.60;;;;;;5021769;28;20091;-81
2022/08/03 10:06:21;;;;;;;5.93;2.85;;;36.00;89.50;;;;;;5036614;28;20090;-81
2022/08/03 10:09:11;;;;;;;8.45;2.47;;;36.30;89.90;;;;;;5039984;28;20053;-85
2022/08/03 10:11:37;;;;;;;5.75;3.00;;;35.40;88.30;;;;;;5023659;28;20036;-85
2022/08/03 10:14:05;;;;;;;7.45;2.63;;;34.40;89.30;;;;;;5008135;28;20043;-85
2022/08/03 10:16:36;;;;;;;9.07;3.22;;;33.70;91.10;;;;;;5019931;28;20446;-85
2022/08/03 10:19:04;;;;;;;5.25;2.53;;;33.80;90.80;;;;;;5055949;28;20053;-85
2022/08/03 10:21:39;;;;;;;7.13;3.10;;;33.80;90.50;;;;;;5020992;28;20041;-85
2022/08/03 10:24:07;;;;;;;8.35;3.05;;;33.30;90.80;;;;;;5026481;28;20045;-81
2022/08/03 10:26:37;;;;;;;8.68;3.58;;;33.10;90.70;;;;;;5036001;28;20037;-81
2022/08/03 10:29:07;;;;;;;11.00;2.97;;;32.60;91.50;;;;;;5019535;28;20435;-81
2022/08/03 10:31:43;;;;;;;7.57;3.47;;;32.10;92.30;;;;;;5038373;28;20045;-81
2022/08/03 10:34:18;;;;;;;6.95;2.72;;;30.70;93.20;;;;;;5038758;28;20079;-81
2022/08/03 10:36:46;;;;;;;8.13;3.85;;;30.60;93.30;;;;;;5037542;28;20433;-80
2022/08/03 10:39:13;;;;;;;6.93;2.85;;;29.90;94.00;;;;;;5038767;28;20051;-80
2022/08/03 10:41:45;;;;;;;10.32;3.33;;;29.40;95.10;;;;;;5022724;28;20079;-81
2022/08/03 10:44:17;;;;;;;10.90;3.70;;;29.40;95.50;;;;;;5038942;28;20045;-81
2022/08/03 10:46:44;;;;;;;9.60;3.08;;;30.10;95.00;;;;;;5021017;28;20041;-80
2022/08/03 10:49:18;;;;;;;6.47;2.55;;;31.10;94.60;;;;;;5038563;28;20047;-80
2022/08/03 10:51:46;;;;;;;6.90;2.72;;;32.40;94.20;;;;;;5038734;28;20037;-80
2022/08/03 10:57:45;;;;;;;7.45;2.78;;;34.10;91.60;;;;;;5054922;28;20483;-85
2022/08/03 11:00:12;;;;;;;;;;;34.40;91.00;;;;;;5039208;28;20056;-85
2022/08/03 11:03:00;;;;;;;8.35;2.80;;;34.20;89.90;;;;;;5015698;28;20106;-85
2022/08/03 11:05:27;;;;;;;7.95;2.53;;;33.60;90.90;;;;;;5002699;28;20045;-85
2022/08/03 11:08:23;;;;;;;9.60;2.75;;;33.70;91.40;;;;;;5030617;28;20094;-85
2022/08/03 11:10:51;;;;;;;7.28;2.45;;;33.50;91.50;;;;;;5022105;28;20045;-84
2022/08/03 11:13:20;;;;;;;11.27;2.88;;;34.00;91.30;;;;;;5038768;28;20037;-81
2022/08/03 11:15:48;;;;;;;11.45;2.53;;;34.70;91.10;;;;;;5023974;28;20068;-81
2022/08/03 11:18:14;;;;;;;5.38;2.53;;;34.70;90.20;;;;;;5018396;28;20529;-81
2022/08/03 11:20:59;;;;;;;4.45;1.85;;;34.60;90.00;;;;;;5022044;28;20116;-81
2022/08/03 11:23:43;;;;;;;9.48;2.72;;;34.50;90.40;;;;;;5030540;28;20037;-81
2022/08/03 11:26:17;;;;;;;7.22;2.22;;;34.20;90.70;;;;;;5038440;28;20371;-81
2022/08/03 11:28:47;;;;;;;9.02;2.58;;;33.80;90.50;;;;;;5021933;28;20048;-81
2022/08/03 11:31:22;;;;;;;4.97;2.20;;;33.50;91.10;;;;;;5037558;28;20037;-81
2022/08/03 11:34:07;;;;;;;6.28;2.63;;;33.40;91.30;;;;;;5037746;28;20093;-80
2022/08/03 11:37:11;;;;;;;9.68;3.33;;;33.60;91.70;;;;;;5037567;28;20080;-81
2022/08/03 11:39:47;;;;;;;8.05;2.92;;;33.70;91.80;;;;;;5018453;28;20053;-81
2022/08/03 11:42:22;;;;;;;8.32;2.17;;;33.60;91.50;;;;;;5014239;28;20041;-81
2022/08/03 11:44:59;;;;;;;6.68;2.58;;;34.00;91.40;;;;;;5018253;28;20124;-80
2022/08/03 11:47:27;;;;;;;8.32;2.05;;;33.90;91.60;;;;;;5018215;28;20034;-81
2022/08/03 11:49:57;;;;;;;10.95;2.25;;;33.70;91.60;;;;;;5021459;28;20449;-81
2022/08/03 11:52:24;;;;;;;9.05;2.25;;;33.00;91.30;;;;;;5037182;28;20043;-80
2022/08/03 11:54:54;;;;;;;7.50;2.25;;;32.80;92.30;;;;;;5021433;28;20041;-82
2022/08/03 11:57:33;;;;;;;6.75;2.08;;;32.80;92.00;;;;;;5020899;28;20479;-81
2022/08/03 11:59:59;;;;;;;5.68;1.80;;;32.80;92.10;;;;;;5021649;28;20128;-81
2022/08/03 12:02:26;;;;;;;7.72;2.85;;;32.70;92.00;;;;;;5036179;28;20102;-81
2022/08/03 12:04:52;;;;;;;13.15;3.05;;;32.70;92.00;;;;;;5038987;28;20102;-81
2022/08/03 12:07:19;;;;;;;10.68;2.50;;;32.30;92.70;;;;;;5037137;28;20475;-81
2022/08/03 12:10:10;;;;;;;6.25;2.40;;;32.30;93.00;;;;;;5037298;28;20040;-81
2022/08/03 12:12:37;;;;;;;7.03;2.45;;;32.30;92.50;;;;;;5035889;28;20036;-81
2022/08/03 12:15:04;;;;;;;7.40;1.88;;;32.20;92.80;;;;;;5019078;28;20049;-81
2022/08/03 12:17:37;;;;;;;6.78;2.13;;;32.10;92.90;;;;;;5036797;28;20140;-81
2022/08/03 12:20:05;;;;;;;6.03;2.10;;;32.50;92.90;;;;;;5020744;28;20440;-81
2022/08/03 12:22:39;;;;;;;6.90;2.60;;;32.70;92.60;;;;;;5036448;28;20045;-81
2022/08/03 12:25:07;;;;;;;7.45;2.40;;;32.70;92.80;;;;;;5020089;28;20506;-81
2022/08/03 12:27:33;;;;;;;5.32;1.83;;;32.50;92.30;;;;;;5006260;28;20041;-81
2022/08/03 12:30:00;;;;;;;7.22;2.05;;;32.20;92.20;;;;;;5049425;28;20044;-81
2022/08/03 12:32:27;;;;;;;6.68;2.90;;;32.10;92.40;;;;;;5036526;28;20536;-81
2022/08/03 12:34:57;;;;;;;7.93;1.95;;;31.80;93.00;;;;;;5031822;28;20039;-81
2022/08/03 12:37:24;;;;;;;9.65;2.30;;;31.80;93.20;;;;;;5037164;28;20041;-85
2022/08/03 12:39:52;;;;;;;7.40;2.65;;;31.60;92.70;;;;;;5020642;28;20061;-84
2022/08/03 12:42:18;;;;;;;6.22;2.35;;;31.60;93.70;;;;;;5021050;28;20085;-85
2022/08/03 12:44:44;;;;;;;8.77;2.95;;;31.50;93.60;;;;;;5036261;28;20500;-85
2022/08/03 12:47:11;;;;;;;9.25;2.90;;;31.20;93.30;;;;;;5052695;28;20055;-85
2022/08/03 12:49:48;;;;;;;10.93;3.42;;;31.20;94.50;;;;;;5046827;28;20049;-85
2022/08/03 12:52:15;;;;;;;8.10;3.05;;;31.30;94.20;;;;;;5036725;28;20037;-85
2022/08/03 12:54:42;;;;;;;12.77;2.67;;;31.00;94.30;;;;;;5037568;28;20048;-85
2022/08/03 12:57:10;;;;;;;11.25;3.13;;;31.00;94.50;;;;;;5056574;28;20037;-85
2022/08/03 12:59:41;;;;;;;6.70;2.75;;;30.90;94.40;;;;;;5040962;28;20510;-85
2022/08/03 13:02:27;;;;;;;7.47;3.10;;;30.70;94.80;;;;;;5016124;28;20045;-85
2022/08/03 13:04:53;;;;;;;;;;;30.90;95.10;;;;;;5000500;28;20415;-85
2022/08/03 13:07:20;;;;;;;7.78;2.83;;;30.90;94.50;;;;;;5032477;28;20355;-85